Time;durP1;ratioP1;P1;durP2;ratioP2;P2;SDS_P1;SDS_P2;PMS_P1;PMS_P2;Temp;Humidity;BMP_temperature;BMP_pressure;BME280_temperature;BME280_humidity;BME280_pressure;Samples;Min_cycle;Max_cycle;Signal;HPM_P1;HPM_P2
2023/03/07 00:00:03;;;;;;;43.70;30.95;;;5.50;99.90;;;;;;2035104;29;20024;-73
2023/03/07 00:01:04;;;;;;;43.15;30.05;;;5.50;99.90;;;;;;2036643;29;20423;-73
2023/03/07 00:02:04;;;;;;;41.80;29.15;;;5.50;99.90;;;;;;2036059;29;20127;-73
2023/03/07 00:03:05;;;;;;;39.40;28.90;;;5.60;99.90;;;;;;2036439;29;20040;-73
2023/03/07 00:04:06;;;;;;;40.83;29.52;;;5.60;99.90;;;;;;2036409;29;20031;-73
2023/03/07 00:05:06;;;;;;;39.90;29.00;;;5.50;99.90;;;;;;2035496;29;20031;-73
2023/03/07 00:06:10;;;;;;;39.80;28.33;;;5.60;99.90;;;;;;2035111;29;20028;-73
2023/03/07 00:07:11;;;;;;;36.78;26.90;;;5.60;99.90;;;;;;2034321;29;20047;-73
2023/03/07 00:08:11;;;;;;;35.85;28.27;;;5.60;99.90;;;;;;2035436;29;20123;-73
2023/03/07 00:09:12;;;;;;;35.85;25.40;;;5.60;99.90;;;;;;2034859;29;20058;-73
2023/03/07 00:10:12;;;;;;;31.63;22.75;;;5.60;99.90;;;;;;2035681;29;20495;-73
2023/03/07 00:11:13;;;;;;;27.90;22.98;;;5.60;99.90;;;;;;2027488;29;20136;-73
2023/03/07 00:12:13;;;;;;;27.95;21.65;;;5.60;99.90;;;;;;2026593;29;20024;-73
2023/03/07 00:13:14;;;;;;;28.02;21.58;;;5.60;99.90;;;;;;2036424;29;20036;-73
2023/03/07 00:14:14;;;;;;;28.42;21.63;;;5.60;99.90;;;;;;2036109;29;20042;-73
2023/03/07 00:15:16;;;;;;;25.15;19.27;;;5.60;99.90;;;;;;2028171;29;20115;-73
2023/03/07 00:16:19;;;;;;;26.60;19.75;;;5.70;99.90;;;;;;2035036;29;20514;-73
2023/03/07 00:17:19;;;;;;;22.67;18.90;;;5.60;99.90;;;;;;2043078;28;20476;-73
2023/03/07 00:18:20;;;;;;;21.67;18.23;;;5.70;99.90;;;;;;2035613;29;20457;-72
2023/03/07 00:19:20;;;;;;;21.75;16.67;;;5.70;99.90;;;;;;2035844;29;20024;-73
2023/03/07 00:20:21;;;;;;;21.08;16.35;;;5.70;99.90;;;;;;2035846;29;20027;-72
2023/03/07 00:21:22;;;;;;;18.85;16.60;;;5.70;99.90;;;;;;2036220;29;20055;-72
2023/03/07 00:22:23;;;;;;;19.15;15.77;;;5.70;99.90;;;;;;2036316;29;20055;-72
2023/03/07 00:23:24;;;;;;;19.92;15.55;;;5.70;99.90;;;;;;2037352;29;20035;-72
2023/03/07 00:24:25;;;;;;;21.55;16.58;;;5.70;99.90;;;;;;2037648;29;20020;-73
2023/03/07 00:25:25;;;;;;;18.38;15.38;;;5.70;99.90;;;;;;2035420;29;20018;-73
2023/03/07 00:26:26;;;;;;;19.40;14.45;;;5.80;99.90;;;;;;2036149;29;20020;-73
2023/03/07 00:27:29;;;;;;;18.95;15.70;;;5.70;99.90;;;;;;2036862;29;20131;-73
2023/03/07 00:28:30;;;;;;;17.55;14.35;;;5.80;99.90;;;;;;2037540;29;20384;-73
2023/03/07 00:29:30;;;;;;;18.90;15.30;;;5.80;99.90;;;;;;2036770;29;20058;-73
2023/03/07 00:30:31;;;;;;;19.02;16.40;;;5.80;99.90;;;;;;2036747;29;20055;-73
2023/03/07 00:31:32;;;;;;;17.63;14.65;;;5.80;99.90;;;;;;2037165;29;20588;-73
2023/03/07 00:32:32;;;;;;;19.23;15.32;;;5.80;99.90;;;;;;2036511;29;20059;-73
2023/03/07 00:33:33;;;;;;;17.25;13.88;;;5.80;99.90;;;;;;2036944;29;20044;-73
2023/03/07 00:34:34;;;;;;;17.70;14.23;;;5.80;99.90;;;;;;2038324;29;20056;-73
2023/03/07 00:35:34;;;;;;;17.35;14.43;;;5.80;99.90;;;;;;2036977;29;20020;-73
2023/03/07 00:36:35;;;;;;;16.67;14.82;;;5.90;99.90;;;;;;2038604;29;20119;-73
2023/03/07 00:37:36;;;;;;;15.57;13.55;;;5.80;99.90;;;;;;2036710;29;20028;-72
2023/03/07 00:38:36;;;;;;;16.08;13.80;;;5.80;99.90;;;;;;2036305;29;20025;-73
2023/03/07 00:39:37;;;;;;;14.52;12.20;;;5.90;99.90;;;;;;2037110;29;20047;-73
2023/03/07 00:40:38;;;;;;;18.00;14.00;;;5.80;99.90;;;;;;2037362;29;20075;-73
2023/03/07 00:41:38;;;;;;;16.15;14.02;;;5.90;99.90;;;;;;2037761;29;20052;-73
2023/03/07 00:42:39;;;;;;;14.73;13.15;;;5.90;99.90;;;;;;2036118;29;20115;-73
2023/03/07 00:43:39;;;;;;;16.08;13.60;;;5.90;99.90;;;;;;2031336;29;20044;-73
2023/03/07 00:44:40;;;;;;;15.23;13.32;;;5.90;99.90;;;;;;2030173;29;20051;-72
2023/03/07 00:45:41;;;;;;;14.55;12.40;;;5.90;99.90;;;;;;2038207;29;20110;-73
2023/03/07 00:46:41;;;;;;;14.77;13.18;;;5.90;99.90;;;;;;2037694;29;20038;-72
2023/03/07 00:47:42;;;;;;;15.65;12.90;;;5.90;99.90;;;;;;2036791;29;20399;-73
2023/03/07 00:48:43;;;;;;;14.52;13.02;;;5.90;99.90;;;;;;2039174;29;20051;-73
2023/03/07 00:49:44;;;;;;;14.02;12.55;;;5.90;99.90;;;;;;2036291;29;20063;-73
2023/03/07 00:50:45;;;;;;;14.13;12.63;;;6.00;99.90;;;;;;2028621;29;20032;-73
2023/03/07 00:51:45;;;;;;;15.05;13.13;;;6.00;99.90;;;;;;2029340;29;20035;-73
2023/03/07 00:52:46;;;;;;;14.90;12.70;;;6.00;99.90;;;;;;2037519;29;20164;-72
2023/03/07 00:53:47;;;;;;;14.05;11.95;;;6.00;99.90;;;;;;2035820;29;20507;-73
2023/03/07 00:54:47;;;;;;;14.35;12.73;;;6.00;99.90;;;;;;2038171;29;20023;-73
2023/03/07 00:56:05;;;;;;;13.57;11.82;;;6.00;99.90;;;;;;2037318;29;20032;-72
2023/03/07 00:57:05;;;;;;;13.85;12.23;;;6.00;99.90;;;;;;2036707;29;20052;-73
2023/03/07 00:58:06;;;;;;;13.57;12.18;;;6.00;99.90;;;;;;2037602;29;20110;-73
2023/03/07 00:59:07;;;;;;;14.93;12.02;;;6.00;99.90;;;;;;2036876;29;20024;-73
2023/03/07 01:00:09;;;;;;;13.88;12.30;;;6.00;99.90;;;;;;2036799;29;20036;-73
2023/03/07 01:01:11;;;;;;;14.27;11.93;;;6.00;99.90;;;;;;2038691;29;20012;-73
2023/03/07 01:02:12;;;;;;;13.40;12.00;;;6.00;99.90;;;;;;2037600;29;20399;-73
2023/03/07 01:03:12;;;;;;;13.05;11.50;;;6.00;99.90;;;;;;2036883;29;20703;-73
2023/03/07 01:04:13;;;;;;;13.00;11.63;;;6.00;99.90;;;;;;2036572;29;20026;-73
2023/03/07 01:05:14;;;;;;;13.20;11.80;;;6.00;99.90;;;;;;2035714;29;20050;-73
2023/03/07 01:06:17;;;;;;;14.52;13.02;;;6.00;99.90;;;;;;2036131;29;20019;-72
2023/03/07 01:07:17;;;;;;;14.98;12.35;;;6.10;99.90;;;;;;2036783;29;20630;-72
2023/03/07 01:08:19;;;;;;;13.63;12.23;;;6.00;99.90;;;;;;2036649;29;20368;-73
2023/03/07 01:09:20;;;;;;;15.13;12.90;;;6.10;99.90;;;;;;2038730;29;20016;-73
2023/03/07 01:10:20;;;;;;;14.52;12.80;;;6.10;99.90;;;;;;2037981;29;20048;-73
2023/03/07 01:11:21;;;;;;;14.18;12.20;;;6.10;99.90;;;;;;2037812;29;20032;-72
2023/03/07 01:12:21;;;;;;;13.70;12.20;;;6.10;99.90;;;;;;2037651;29;20506;-72
2023/03/07 01:13:22;;;;;;;13.77;12.30;;;6.10;99.90;;;;;;2039162;29;20098;-73
2023/03/07 01:14:23;;;;;;;14.68;13.00;;;6.10;99.90;;;;;;2035575;29;20032;-73
2023/03/07 01:15:23;;;;;;;13.52;12.13;;;6.10;99.90;;;;;;2036899;29;20115;-73
2023/03/07 01:16:27;;;;;;;13.43;12.00;;;6.10;99.90;;;;;;2034978;29;20118;-72
2023/03/07 01:17:28;;;;;;;13.85;12.45;;;6.10;99.90;;;;;;2036206;29;20027;-72
2023/03/07 01:18:28;;;;;;;12.98;11.55;;;6.10;99.90;;;;;;2034665;29;20035;-72
2023/03/07 01:19:29;;;;;;;14.20;12.52;;;6.10;99.90;;;;;;2036630;29;20036;-72
2023/03/07 01:20:31;;;;;;;14.30;12.80;;;6.10;99.90;;;;;;2037914;29;20075;-73
2023/03/07 01:21:38;;;;;;;14.45;12.20;;;6.20;99.90;;;;;;2036294;29;20042;-73
2023/03/07 01:22:38;;;;;;;12.48;11.07;;;6.20;99.90;;;;;;2036065;29;20062;-73
2023/03/07 01:23:39;;;;;;;13.20;11.85;;;6.20;99.90;;;;;;2036820;29;20039;-73
2023/03/07 01:24:39;;;;;;;14.00;12.60;;;6.20;99.90;;;;;;2035844;29;20055;-73
2023/03/07 01:25:41;;;;;;;14.20;12.80;;;6.20;99.90;;;;;;2037172;29;20028;-73
2023/03/07 01:26:42;;;;;;;13.98;12.65;;;6.20;99.90;;;;;;2034308;29;20025;-72
2023/03/07 01:27:43;;;;;;;13.82;12.43;;;6.20;99.90;;;;;;2036930;29;20058;-72
2023/03/07 01:28:44;;;;;;;14.48;13.05;;;6.20;99.90;;;;;;2036436;29;20032;-73
2023/03/07 01:29:44;;;;;;;15.63;14.02;;;6.20;99.90;;;;;;2036764;29;20047;-73
2023/03/07 01:30:54;;;;;;;15.38;13.85;;;6.20;99.90;;;;;;2036319;29;20043;-73
2023/03/07 01:31:55;;;;;;;15.38;13.77;;;6.20;99.90;;;;;;2036966;29;20026;-73
2023/03/07 01:32:57;;;;;;;15.68;14.15;;;6.20;99.90;;;;;;2035345;29;20048;-73
2023/03/07 01:33:59;;;;;;;15.52;13.95;;;6.20;99.90;;;;;;2036839;29;20035;-73
2023/03/07 01:35:00;;;;;;;16.80;15.00;;;6.20;99.90;;;;;;2036833;29;20023;-73
2023/03/07 01:36:01;;;;;;;15.95;14.38;;;6.20;99.90;;;;;;2037440;29;20098;-73
2023/03/07 01:37:01;;;;;;;15.95;14.35;;;6.20;99.90;;;;;;2037537;29;20031;-73
2023/03/07 01:38:02;;;;;;;16.35;14.85;;;6.20;99.90;;;;;;2037853;29;20035;-73
2023/03/07 01:39:14;;;;;;;15.75;14.15;;;6.20;99.90;;;;;;2036065;29;20234;-74
2023/03/07 01:40:15;;;;;;;15.88;14.32;;;6.20;99.90;;;;;;2034572;29;20087;-73
2023/03/07 01:41:16;;;;;;;16.20;14.55;;;6.20;99.90;;;;;;2036507;29;20562;-73
2023/03/07 01:42:16;;;;;;;16.90;15.20;;;6.20;99.90;;;;;;2036502;29;20727;-73
2023/03/07 01:43:29;;;;;;;17.17;15.43;;;6.20;99.90;;;;;;2036751;29;20500;-73
2023/03/07 01:44:29;;;;;;;15.65;14.15;;;6.30;99.90;;;;;;2035971;29;20473;-73
2023/03/07 01:45:33;;;;;;;17.25;15.55;;;6.20;99.90;;;;;;2036689;29;20675;-73
2023/03/07 01:46:44;;;;;;;16.25;14.73;;;6.20;99.90;;;;;;2037712;29;20024;-73
2023/03/07 01:47:45;;;;;;;14.88;13.48;;;6.30;99.90;;;;;;2035536;29;20614;-73
2023/03/07 01:48:53;;;;;;;16.35;14.73;;;6.20;99.90;;;;;;2038340;29;20161;-73
2023/03/07 01:49:54;;;;;;;17.65;15.85;;;6.30;99.90;;;;;;2035943;29;20054;-73
2023/03/07 01:50:54;;;;;;;16.75;15.05;;;6.20;99.90;;;;;;2037024;29;20032;-73
2023/03/07 01:52:09;;;;;;;16.73;15.02;;;6.30;99.90;;;;;;2037727;29;20027;-73
2023/03/07 01:53:10;;;;;;;16.35;14.65;;;6.30;99.90;;;;;;2036833;29;20067;-73
2023/03/07 01:54:14;;;;;;;16.50;15.00;;;6.30;99.90;;;;;;2035260;29;20024;-73
2023/03/07 01:55:22;;;;;;;16.13;14.52;;;6.30;99.90;;;;;;2035250;29;20384;-73
2023/03/07 01:56:23;;;;;;;16.75;15.15;;;6.30;99.90;;;;;;2035178;29;21135;-73
2023/03/07 01:57:34;;;;;;;18.20;16.40;;;6.30;99.90;;;;;;2037009;29;20866;-73
2023/03/07 01:58:37;;;;;;;17.02;15.32;;;6.20;99.90;;;;;;2038117;29;20063;-73
2023/03/07 01:59:43;;;;;;;16.55;14.95;;;6.30;99.90;;;;;;2036962;29;20392;-73
2023/03/07 02:00:44;;;;;;;15.75;14.32;;;6.30;99.90;;;;;;2034981;29;20558;-73
2023/03/07 02:01:45;;;;;;;16.95;15.25;;;6.30;99.90;;;;;;2036845;29;20455;-73
2023/03/07 02:02:53;;;;;;;16.77;15.15;;;6.30;99.90;;;;;;2027878;29;20035;-73
2023/03/07 02:04:27;;;;;;;16.45;14.95;;;6.30;99.90;;;;;;2028787;29;20042;-73
2023/03/07 02:05:34;;;;;;;16.83;15.23;;;6.30;99.90;;;;;;2026589;29;20063;-73
2023/03/07 02:06:36;;;;;;;18.88;17.08;;;6.30;99.90;;;;;;2036382;29;20035;-73
2023/03/07 02:07:45;;;;;;;18.13;16.40;;;6.30;99.90;;;;;;2037949;29;20099;-73
2023/03/07 02:08:48;;;;;;;18.25;16.55;;;6.30;99.90;;;;;;2035614;29;20028;-73
2023/03/07 02:09:50;;;;;;;17.75;16.10;;;6.30;99.90;;;;;;2036238;29;20695;-73
2023/03/07 02:10:52;;;;;;;18.25;16.50;;;6.30;99.90;;;;;;2037626;29;20403;-73
2023/03/07 02:11:55;;;;;;;19.02;17.25;;;6.30;99.90;;;;;;2035936;29;21500;-73
2023/03/07 02:12:56;;;;;;;18.48;16.77;;;6.30;99.90;;;;;;2036339;29;20495;-73
2023/03/07 02:13:57;;;;;;;18.65;16.88;;;6.30;99.90;;;;;;2037624;29;20425;-73
2023/03/07 02:14:57;;;;;;;18.88;17.15;;;6.30;99.90;;;;;;2036211;29;20556;-73
2023/03/07 02:16:01;;;;;;;19.70;17.83;;;6.30;99.90;;;;;;2037333;29;20345;-73
2023/03/07 02:17:02;;;;;;;19.85;18.02;;;6.30;99.90;;;;;;2036051;29;20412;-72
2023/03/07 02:18:04;;;;;;;20.45;18.52;;;6.40;99.90;;;;;;2037344;29;20107;-72
2023/03/07 02:19:35;;;;;;;19.27;17.38;;;6.40;99.90;;;;;;2036425;29;20027;-72
2023/03/07 02:20:49;;;;;;;18.90;17.13;;;6.40;99.90;;;;;;2019207;29;20068;-71
2023/03/07 02:22:24;;;;;;;17.95;16.25;;;6.30;99.90;;;;;;2037143;29;20040;-72
2023/03/07 02:23:47;;;;;;;17.60;16.00;;;6.30;99.90;;;;;;2033864;29;20479;-72
2023/03/07 02:25:16;;;;;;;17.80;16.25;;;6.30;99.90;;;;;;2036786;29;20032;-72
2023/03/07 02:26:28;;;;;;;16.52;15.07;;;6.30;99.90;;;;;;2033344;29;20027;-72
2023/03/07 02:27:31;;;;;;;16.75;15.35;;;6.30;99.90;;;;;;2034169;29;20515;-72
2023/03/07 02:28:32;;;;;;;16.95;15.45;;;6.30;99.90;;;;;;2036237;29;20136;-72
2023/03/07 02:29:33;;;;;;;16.67;15.13;;;6.30;99.90;;;;;;2038811;29;20443;-71
2023/03/07 02:30:36;;;;;;;17.50;15.90;;;6.30;99.90;;;;;;2037207;29;20047;-72
2023/03/07 02:31:37;;;;;;;16.70;15.20;;;6.30;99.90;;;;;;2030062;29;20052;-72
2023/03/07 02:32:37;;;;;;;15.50;14.13;;;6.30;99.90;;;;;;2030682;29;20036;-72
2023/03/07 02:33:38;;;;;;;15.38;14.07;;;6.30;99.90;;;;;;2036446;29;20059;-72
2023/03/07 02:34:38;;;;;;;14.30;13.00;;;6.30;99.90;;;;;;2038934;29;20032;-72
2023/03/07 02:35:39;;;;;;;15.30;13.90;;;6.30;99.90;;;;;;2035458;29;20027;-72
2023/03/07 02:36:39;;;;;;;13.80;12.70;;;6.30;99.90;;;;;;2036707;29;20028;-71
2023/03/07 02:37:41;;;;;;;13.82;12.65;;;6.30;99.90;;;;;;2037243;29;20111;-72
2023/03/07 02:38:44;;;;;;;13.45;12.15;;;6.40;99.90;;;;;;2034740;29;20038;-72
2023/03/07 02:39:46;;;;;;;13.20;11.98;;;6.30;99.90;;;;;;2035414;29;20047;-72
2023/03/07 02:40:47;;;;;;;13.45;12.27;;;6.30;99.90;;;;;;2034348;29;20020;-71
2023/03/07 02:41:49;;;;;;;13.85;12.57;;;6.30;99.90;;;;;;2035330;29;20050;-72
2023/03/07 02:42:52;;;;;;;13.73;12.55;;;6.30;99.90;;;;;;2037088;29;20066;-71
2023/03/07 02:43:53;;;;;;;14.23;12.98;;;6.30;99.90;;;;;;2035152;29;20044;-71
2023/03/07 02:44:56;;;;;;;14.57;13.27;;;6.40;99.90;;;;;;2035911;29;20039;-72
2023/03/07 02:45:57;;;;;;;15.30;13.88;;;6.40;99.90;;;;;;2037534;29;20027;-71
2023/03/07 02:46:57;;;;;;;14.70;13.50;;;6.40;99.90;;;;;;2035200;29;20114;-72
2023/03/07 02:47:58;;;;;;;14.77;13.55;;;6.40;99.90;;;;;;2038289;29;20131;-72
2023/03/07 02:48:58;;;;;;;14.57;13.25;;;6.40;99.90;;;;;;2036996;29;20035;-72
2023/03/07 02:49:59;;;;;;;15.65;14.27;;;6.40;99.90;;;;;;2037493;29;20071;-71
2023/03/07 02:50:59;;;;;;;15.63;14.32;;;6.40;99.90;;;;;;2036129;29;20032;-72
2023/03/07 02:52:00;;;;;;;16.27;14.88;;;6.40;99.90;;;;;;2036498;29;20042;-72
2023/03/07 02:53:01;;;;;;;18.15;16.48;;;6.50;99.90;;;;;;2036726;29;20027;-72
2023/03/07 02:54:01;;;;;;;18.63;17.02;;;6.50;99.90;;;;;;2035217;29;20154;-72
2023/03/07 02:55:02;;;;;;;18.52;16.92;;;6.50;99.90;;;;;;2036569;29;20794;-72
2023/03/07 02:56:03;;;;;;;21.20;19.25;;;6.50;99.90;;;;;;2035716;29;20050;-71
2023/03/07 02:57:04;;;;;;;20.58;18.67;;;6.50;99.90;;;;;;2036734;29;20028;-72
2023/03/07 02:58:04;;;;;;;21.60;19.67;;;6.50;99.90;;;;;;2036477;29;20039;-72
2023/03/07 02:59:05;;;;;;;20.55;18.75;;;6.50;99.90;;;;;;2036243;29;20030;-72
2023/03/07 03:00:07;;;;;;;21.60;19.60;;;6.50;99.90;;;;;;2035787;29;20692;-71
2023/03/07 03:01:07;;;;;;;20.25;18.45;;;6.50;99.90;;;;;;2037429;29;20099;-72
2023/03/07 03:02:08;;;;;;;19.20;17.50;;;6.50;99.90;;;;;;2036964;29;20265;-72
2023/03/07 03:03:08;;;;;;;18.02;16.40;;;6.50;99.90;;;;;;2036861;29;20051;-72
2023/03/07 03:04:09;;;;;;;17.05;15.55;;;6.50;99.90;;;;;;2036332;29;20024;-71
2023/03/07 03:05:09;;;;;;;17.10;15.60;;;6.50;99.90;;;;;;2036385;29;20059;-72
2023/03/07 03:06:10;;;;;;;15.40;14.00;;;6.50;99.90;;;;;;2036792;29;20024;-72
2023/03/07 03:07:10;;;;;;;15.35;13.90;;;6.50;99.90;;;;;;2036486;29;20035;-72
2023/03/07 03:08:11;;;;;;;14.07;12.88;;;6.50;99.90;;;;;;2034165;29;20032;-72
2023/03/07 03:09:12;;;;;;;13.13;12.00;;;6.40;99.90;;;;;;2036291;29;20028;-72
2023/03/07 03:10:12;;;;;;;12.73;11.50;;;6.50;99.90;;;;;;2035450;29;20030;-72
2023/03/07 03:11:13;;;;;;;12.00;10.85;;;6.40;99.90;;;;;;2035530;29;20625;-72
2023/03/07 03:12:13;;;;;;;10.50;9.60;;;6.40;99.90;;;;;;2036092;29;20475;-72
2023/03/07 03:13:14;;;;;;;9.68;8.80;;;6.50;99.90;;;;;;2035469;29;20513;-72
2023/03/07 03:14:14;;;;;;;8.52;7.82;;;6.40;99.90;;;;;;2035974;29;20090;-72
2023/03/07 03:15:15;;;;;;;7.43;6.82;;;6.40;99.90;;;;;;2036247;29;20290;-72
2023/03/07 03:16:16;;;;;;;7.07;6.47;;;6.50;99.90;;;;;;2037067;29;20074;-72
2023/03/07 03:17:16;;;;;;;7.80;7.13;;;6.40;99.90;;;;;;2036410;29;20028;-72
2023/03/07 03:18:17;;;;;;;7.45;6.72;;;6.50;99.90;;;;;;2036932;29;20106;-72
2023/03/07 03:19:17;;;;;;;7.65;6.95;;;6.50;99.90;;;;;;2036421;29;20102;-71
2023/03/07 03:20:18;;;;;;;7.65;6.90;;;6.50;99.90;;;;;;2035644;29;20030;-72
2023/03/07 03:21:19;;;;;;;9.02;7.05;;;6.50;99.90;;;;;;2035378;29;21418;-72
2023/03/07 03:22:19;;;;;;;8.18;7.40;;;6.50;99.90;;;;;;2034856;29;20394;-72
2023/03/07 03:23:20;;;;;;;7.47;6.88;;;6.50;99.90;;;;;;2034373;29;20510;-72
2023/03/07 03:24:21;;;;;;;7.50;6.90;;;6.40;99.90;;;;;;2035861;29;20027;-72
2023/03/07 03:25:23;;;;;;;7.20;6.60;;;6.50;99.90;;;;;;2034785;29;20049;-72
2023/03/07 03:26:23;;;;;;;8.57;7.78;;;6.50;99.90;;;;;;2037381;29;20019;-72
2023/03/07 03:27:24;;;;;;;8.07;7.38;;;6.40;99.90;;;;;;2035661;29;20027;-72
2023/03/07 03:28:25;;;;;;;7.93;7.22;;;6.40;99.90;;;;;;2034810;29;20016;-72
2023/03/07 03:29:26;;;;;;;8.32;7.57;;;6.40;99.90;;;;;;2035822;29;20135;-72
2023/03/07 03:30:31;;;;;;;9.13;8.32;;;6.40;99.90;;;;;;2034973;29;20107;-72
2023/03/07 03:31:32;;;;;;;7.85;7.22;;;6.40;99.90;;;;;;2036640;29;20028;-72
2023/03/07 03:32:35;;;;;;;8.35;7.63;;;6.40;99.90;;;;;;2036085;29;20027;-72
2023/03/07 03:33:36;;;;;;;8.00;7.30;;;6.40;99.90;;;;;;2037585;29;20399;-72
2023/03/07 03:34:36;;;;;;;7.75;7.05;;;6.50;99.90;;;;;;2036865;29;20066;-72
2023/03/07 03:35:38;;;;;;;7.13;6.53;;;6.50;99.90;;;;;;2035202;29;20035;-72
2023/03/07 03:36:39;;;;;;;6.63;6.03;;;6.40;99.90;;;;;;2035151;29;20063;-72
2023/03/07 03:37:39;;;;;;;5.93;5.43;;;6.40;99.90;;;;;;2036771;29;20031;-72
2023/03/07 03:38:40;;;;;;;6.00;5.50;;;6.40;99.90;;;;;;2036651;29;20345;-72
2023/03/07 03:39:41;;;;;;;5.53;5.13;;;6.40;99.90;;;;;;2036588;29;20115;-72
2023/03/07 03:40:41;;;;;;;5.70;5.15;;;6.40;99.90;;;;;;2034263;29;21442;-72
2023/03/07 03:41:42;;;;;;;5.13;4.72;;;6.40;99.90;;;;;;2035191;29;20031;-72
2023/03/07 03:42:43;;;;;;;5.32;4.82;;;6.40;99.90;;;;;;2034997;29;20035;-72
2023/03/07 03:43:44;;;;;;;5.47;5.07;;;6.40;99.90;;;;;;2035722;29;20519;-72
2023/03/07 03:44:44;;;;;;;4.95;4.55;;;6.40;99.90;;;;;;2034914;29;20419;-72
2023/03/07 03:45:53;;;;;;;5.00;4.55;;;6.40;99.90;;;;;;2036176;29;20054;-72
2023/03/07 03:46:54;;;;;;;5.40;5.00;;;6.40;99.90;;;;;;2035748;29;20024;-72
2023/03/07 03:47:55;;;;;;;5.60;5.13;;;6.40;99.90;;;;;;2041590;28;20024;-72
2023/03/07 03:48:55;;;;;;;5.20;4.80;;;6.40;99.90;;;;;;2042452;28;20059;-72
2023/03/07 03:49:56;;;;;;;5.75;5.25;;;6.40;99.90;;;;;;2035453;29;20024;-72
2023/03/07 03:51:15;;;;;;;5.75;5.30;;;6.40;99.90;;;;;;2035674;29;20036;-72
2023/03/07 03:52:15;;;;;;;5.75;5.28;;;6.40;99.90;;;;;;2036153;29;20467;-72
2023/03/07 03:53:16;;;;;;;5.63;5.22;;;6.40;99.90;;;;;;2037366;29;20512;-72
2023/03/07 03:54:16;;;;;;;6.05;5.55;;;6.40;99.90;;;;;;2035204;29;20141;-72
2023/03/07 03:55:17;;;;;;;6.40;5.88;;;6.40;99.90;;;;;;2035254;29;21698;-72
2023/03/07 03:56:20;;;;;;;7.05;6.47;;;6.40;99.90;;;;;;2035997;29;20023;-72
2023/03/07 03:57:20;;;;;;;6.85;6.15;;;6.40;99.90;;;;;;2035209;29;20522;-72
2023/03/07 03:58:21;;;;;;;7.22;6.63;;;6.40;99.90;;;;;;2036708;29;20390;-72
2023/03/07 03:59:22;;;;;;;7.95;7.18;;;6.40;99.90;;;;;;2035205;29;20036;-72
2023/03/07 04:00:22;;;;;;;6.88;6.28;;;6.40;99.90;;;;;;2035890;29;20077;-72
2023/03/07 04:01:26;;;;;;;7.53;6.82;;;6.40;99.90;;;;;;2026805;29;20032;-72
2023/03/07 04:02:29;;;;;;;7.80;7.10;;;6.40;99.90;;;;;;2028844;29;20032;-72
2023/03/07 04:03:29;;;;;;;8.07;7.38;;;6.40;99.90;;;;;;2037230;29;20024;-72
2023/03/07 04:04:30;;;;;;;8.20;7.50;;;6.40;99.90;;;;;;2036574;29;20513;-72
2023/03/07 04:05:33;;;;;;;8.75;7.93;;;6.40;99.90;;;;;;2030658;29;20039;-71
2023/03/07 04:06:34;;;;;;;8.05;7.35;;;6.40;99.90;;;;;;2030269;29;20032;-71
2023/03/07 04:07:35;;;;;;;8.40;7.72;;;6.40;99.90;;;;;;2038623;29;20032;-72
2023/03/07 04:08:36;;;;;;;8.50;7.80;;;6.40;99.90;;;;;;2038869;29;20479;-71
2023/03/07 04:09:37;;;;;;;9.10;8.20;;;6.40;99.90;;;;;;2035282;29;20021;-72
2023/03/07 04:10:37;;;;;;;8.30;7.60;;;6.40;99.90;;;;;;2036683;29;20047;-72
2023/03/07 04:11:38;;;;;;;8.70;7.80;;;6.40;99.90;;;;;;2037209;29;20783;-72
2023/03/07 04:12:39;;;;;;;9.15;8.25;;;6.40;99.90;;;;;;2037769;29;20621;-71
2023/03/07 04:13:40;;;;;;;9.02;8.25;;;6.40;99.90;;;;;;2037472;29;20031;-72
2023/03/07 04:14:40;;;;;;;9.25;8.48;;;6.40;99.90;;;;;;2036108;29;20024;-71
2023/03/07 04:15:41;;;;;;;9.48;8.68;;;6.40;99.90;;;;;;2037665;29;20027;-72
2023/03/07 04:16:41;;;;;;;9.10;8.30;;;6.40;99.90;;;;;;2028437;29;20164;-71
2023/03/07 04:17:42;;;;;;;9.98;9.07;;;6.40;99.90;;;;;;2028786;29;20025;-72
2023/03/07 04:18:43;;;;;;;9.68;8.77;;;6.40;99.90;;;;;;2038665;29;20538;-72
2023/03/07 04:19:43;;;;;;;10.20;9.38;;;6.40;99.90;;;;;;2037487;29;20079;-72
2023/03/07 04:20:44;;;;;;;10.07;9.20;;;6.40;99.90;;;;;;2037215;29;20079;-72
2023/03/07 04:21:44;;;;;;;9.93;9.13;;;6.40;99.90;;;;;;2037888;29;20024;-72
2023/03/07 04:22:45;;;;;;;10.00;9.20;;;6.40;99.90;;;;;;2036865;29;20090;-72
2023/03/07 04:23:48;;;;;;;9.48;8.68;;;6.40;99.90;;;;;;2029509;29;20029;-72
2023/03/07 04:24:48;;;;;;;10.23;9.32;;;6.40;99.90;;;;;;2029093;29;20064;-72
2023/03/07 04:25:52;;;;;;;10.18;9.38;;;6.30;99.90;;;;;;2028131;29;20064;-72
2023/03/07 04:26:52;;;;;;;10.50;9.50;;;6.30;99.90;;;;;;2029142;29;20032;-72
2023/03/07 04:27:53;;;;;;;9.68;8.88;;;6.30;99.90;;;;;;2037120;29;20050;-72
2023/03/07 04:28:53;;;;;;;8.82;7.97;;;6.30;99.90;;;;;;2037937;29;20036;-72
2023/03/07 04:29:54;;;;;;;8.90;8.10;;;6.30;99.90;;;;;;2038046;29;20189;-72
2023/03/07 04:30:55;;;;;;;8.20;7.50;;;6.30;99.90;;;;;;2036548;29;20088;-72
2023/03/07 04:31:55;;;;;;;7.70;7.00;;;6.30;99.90;;;;;;2038548;29;20035;-72
2023/03/07 04:32:56;;;;;;;8.02;7.32;;;6.30;99.90;;;;;;2037553;29;20164;-72
2023/03/07 04:33:57;;;;;;;8.18;7.45;;;6.30;99.90;;;;;;2036562;29;20055;-72
2023/03/07 04:34:57;;;;;;;8.73;7.93;;;6.30;99.90;;;;;;2037746;29;20574;-71
2023/03/07 04:35:58;;;;;;;7.70;7.00;;;6.30;99.90;;;;;;2038603;29;20012;-72
2023/03/07 04:36:58;;;;;;;7.32;6.72;;;6.30;99.90;;;;;;2038152;29;20034;-72
2023/03/07 04:37:59;;;;;;;8.07;7.38;;;6.30;99.90;;;;;;2037895;29;20514;-72
2023/03/07 04:38:59;;;;;;;7.38;6.78;;;6.30;99.90;;;;;;2036109;29;20123;-72
2023/03/07 04:40:00;;;;;;;6.95;6.32;;;6.20;99.90;;;;;;2034489;29;20119;-72
2023/03/07 04:41:00;;;;;;;7.30;6.60;;;6.20;99.90;;;;;;2034264;29;20044;-72
2023/03/07 04:42:01;;;;;;;7.25;6.60;;;6.20;99.90;;;;;;2031625;29;20145;-71
2023/03/07 04:43:02;;;;;;;7.70;7.00;;;6.20;99.90;;;;;;2037676;29;20042;-72
2023/03/07 04:44:02;;;;;;;7.65;6.95;;;6.30;99.90;;;;;;2038507;29;20044;-72
2023/03/07 04:45:03;;;;;;;8.10;7.30;;;6.30;99.90;;;;;;2038265;29;20039;-71
2023/03/07 04:46:04;;;;;;;8.98;8.18;;;6.30;99.90;;;;;;2036555;29;20027;-72
2023/03/07 04:47:05;;;;;;;9.30;8.50;;;6.30;99.90;;;;;;2037596;29;20039;-72
2023/03/07 04:48:05;;;;;;;8.95;8.15;;;6.30;99.90;;;;;;2037930;29;20376;-72
2023/03/07 04:49:06;;;;;;;8.70;8.00;;;6.30;99.90;;;;;;2037689;29;20067;-72
2023/03/07 04:50:07;;;;;;;9.73;8.88;;;6.30;99.90;;;;;;2037256;29;20031;-71
2023/03/07 04:51:08;;;;;;;10.30;9.40;;;6.30;99.90;;;;;;2036122;29;20028;-71
2023/03/07 04:52:08;;;;;;;11.75;10.77;;;6.40;99.90;;;;;;2036778;29;20054;-71
2023/03/07 04:53:09;;;;;;;11.30;10.30;;;6.40;99.90;;;;;;2036159;29;20034;-71
2023/03/07 04:54:10;;;;;;;11.93;10.82;;;6.40;99.90;;;;;;2037672;29;20032;-72
2023/03/07 04:55:11;;;;;;;12.00;11.00;;;6.40;99.90;;;;;;2036535;29;20515;-72
2023/03/07 04:56:14;;;;;;;12.70;11.60;;;6.40;99.90;;;;;;2036146;29;20091;-72
2023/03/07 04:57:14;;;;;;;11.68;10.68;;;6.40;99.90;;;;;;2036239;29;20095;-72
2023/03/07 04:58:15;;;;;;;11.35;10.45;;;6.40;99.90;;;;;;2037979;29;20095;-72
2023/03/07 04:59:15;;;;;;;11.52;10.52;;;6.40;99.90;;;;;;2038568;29;20022;-72
2023/03/07 05:00:16;;;;;;;9.95;9.15;;;6.30;99.90;;;;;;2036690;29;20494;-72
2023/03/07 05:01:17;;;;;;;9.68;8.88;;;6.30;99.90;;;;;;2037549;29;20078;-72
2023/03/07 05:02:18;;;;;;;8.88;8.13;;;6.30;99.90;;;;;;2035936;29;20024;-72
2023/03/07 05:03:19;;;;;;;9.73;8.73;;;6.30;99.90;;;;;;2036813;29;20118;-71
2023/03/07 05:04:19;;;;;;;9.02;8.23;;;6.30;99.90;;;;;;2035211;29;20550;-72
2023/03/07 05:05:20;;;;;;;7.93;7.32;;;6.30;99.90;;;;;;2036730;29;20032;-72
2023/03/07 05:06:20;;;;;;;7.32;6.72;;;6.30;99.90;;;;;;2036884;29;20028;-72
2023/03/07 05:07:21;;;;;;;7.25;6.65;;;6.30;99.90;;;;;;2038243;29;20107;-72
2023/03/07 05:08:22;;;;;;;6.95;6.22;;;6.30;99.90;;;;;;2038908;29;20028;-72
2023/03/07 05:09:22;;;;;;;6.82;6.22;;;6.30;99.90;;;;;;2038250;29;20038;-72
2023/03/07 05:10:23;;;;;;;6.63;5.95;;;6.30;99.90;;;;;;2037060;29;20036;-72
2023/03/07 05:11:23;;;;;;;6.35;5.85;;;6.30;99.90;;;;;;2035746;29;20039;-71
2023/03/07 05:12:24;;;;;;;6.45;5.95;;;6.40;99.90;;;;;;2036195;29;20691;-71
2023/03/07 05:13:25;;;;;;;7.10;6.50;;;6.40;99.90;;;;;;2037609;29;20351;-71
2023/03/07 05:14:25;;;;;;;6.95;6.25;;;6.40;99.90;;;;;;2035716;29;20024;-71
2023/03/07 05:15:26;;;;;;;6.38;5.78;;;6.40;99.90;;;;;;2036969;29;20688;-72
2023/03/07 05:16:26;;;;;;;6.78;6.15;;;6.40;99.90;;;;;;2036168;29;20110;-72
2023/03/07 05:17:30;;;;;;;7.22;6.63;;;6.40;99.90;;;;;;2036584;29;20040;-72
2023/03/07 05:18:30;;;;;;;7.45;6.75;;;6.40;99.90;;;;;;2037353;29;20098;-72
2023/03/07 05:19:31;;;;;;;10.15;7.03;;;6.40;99.90;;;;;;2035907;29;20028;-72
2023/03/07 05:20:32;;;;;;;9.23;8.43;;;6.40;99.90;;;;;;2036822;29;20224;-72